sensor_id;sensor_type;location;lat;lon;timestamp;P1;durP1;ratioP1;P2;durP2;ratioP2
53927;SDS011;39837;47.630;18.822;2023-05-29T00:02:32;2.70;;;2.50;;
53927;SDS011;39837;47.630;18.822;2023-05-29T00:05:17;3.05;;;2.90;;
53927;SDS011;39837;47.630;18.822;2023-05-29T00:08:02;3.38;;;2.70;;
53927;SDS011;39837;47.630;18.822;2023-05-29T00:10:46;2.85;;;2.65;;
53927;SDS011;39837;47.630;18.822;2023-05-29T00:13:30;14.63;;;3.22;;
53927;SDS011;39837;47.630;18.822;2023-05-29T00:16:14;5.55;;;3.40;;
53927;SDS011;39837;47.630;18.822;2023-05-29T00:18:58;2.55;;;2.42;;
53927;SDS011;39837;47.630;18.822;2023-05-29T00:21:42;2.90;;;2.60;;
53927;SDS011;39837;47.630;18.822;2023-05-29T00:24:27;2.92;;;2.75;;
53927;SDS011;39837;47.630;18.822;2023-05-29T00:27:11;2.63;;;2.42;;
53927;SDS011;39837;47.630;18.822;2023-05-29T00:29:55;2.22;;;2.13;;
53927;SDS011;39837;47.630;18.822;2023-05-29T00:32:39;3.97;;;2.97;;
53927;SDS011;39837;47.630;18.822;2023-05-29T00:35:24;2.40;;;2.03;;
53927;SDS011;39837;47.630;18.822;2023-05-29T00:38:08;1.95;;;1.85;;
53927;SDS011;39837;47.630;18.822;2023-05-29T00:40:52;2.45;;;2.33;;
53927;SDS011;39837;47.630;18.822;2023-05-29T00:43:35;3.60;;;3.30;;
53927;SDS011;39837;47.630;18.822;2023-05-29T00:46:19;2.50;;;2.40;;
53927;SDS011;39837;47.630;18.822;2023-05-29T00:49:04;3.20;;;2.90;;
53927;SDS011;39837;47.630;18.822;2023-05-29T00:51:49;4.93;;;2.85;;
53927;SDS011;39837;47.630;18.822;2023-05-29T00:54:35;3.45;;;2.60;;
53927;SDS011;39837;47.630;18.822;2023-05-29T00:57:20;2.92;;;2.58;;
53927;SDS011;39837;47.630;18.822;2023-05-29T01:00:05;2.90;;;2.70;;
53927;SDS011;39837;47.630;18.822;2023-05-29T01:02:57;4.25;;;2.72;;
53927;SDS011;39837;47.630;18.822;2023-05-29T01:05:41;6.43;;;2.10;;
53927;SDS011;39837;47.630;18.822;2023-05-29T01:08:25;4.82;;;2.63;;
53927;SDS011;39837;47.630;18.822;2023-05-29T01:11:18;2.60;;;2.40;;
53927;SDS011;39837;47.630;18.822;2023-05-29T01:14:09;5.47;;;2.83;;
53927;SDS011;39837;47.630;18.822;2023-05-29T01:17:18;2.83;;;2.63;;
53927;SDS011;39837;47.630;18.822;2023-05-29T01:29:10;4.35;;;2.40;;
53927;SDS011;39837;47.630;18.822;2023-05-29T01:31:56;4.78;;;2.92;;
53927;SDS011;39837;47.630;18.822;2023-05-29T01:34:41;4.68;;;3.00;;
53927;SDS011;39837;47.630;18.822;2023-05-29T01:37:25;3.30;;;2.70;;
53927;SDS011;39837;47.630;18.822;2023-05-29T01:40:11;2.58;;;2.47;;
53927;SDS011;39837;47.630;18.822;2023-05-29T01:42:55;3.17;;;2.83;;
53927;SDS011;39837;47.630;18.822;2023-05-29T01:45:40;3.00;;;2.80;;
53927;SDS011;39837;47.630;18.822;2023-05-29T01:48:24;4.13;;;3.38;;
53927;SDS011;39837;47.630;18.822;2023-05-29T01:51:09;3.63;;;3.15;;
53927;SDS011;39837;47.630;18.822;2023-05-29T01:53:57;2.95;;;2.72;;
53927;SDS011;39837;47.630;18.822;2023-05-29T01:56:44;2.70;;;2.50;;
53927;SDS011;39837;47.630;18.822;2023-05-29T01:59:28;2.45;;;2.30;;
53927;SDS011;39837;47.630;18.822;2023-05-29T02:02:13;3.47;;;3.08;;
53927;SDS011;39837;47.630;18.822;2023-05-29T02:04:57;2.50;;;2.33;;
53927;SDS011;39837;47.630;18.822;2023-05-29T02:07:41;2.70;;;2.50;;
53927;SDS011;39837;47.630;18.822;2023-05-29T02:10:25;2.70;;;2.20;;
53927;SDS011;39837;47.630;18.822;2023-05-29T02:13:09;3.10;;;2.33;;
53927;SDS011;39837;47.630;18.822;2023-05-29T02:15:54;2.47;;;2.28;;
53927;SDS011;39837;47.630;18.822;2023-05-29T02:18:38;2.88;;;2.67;;
53927;SDS011;39837;47.630;18.822;2023-05-29T02:21:22;2.33;;;2.05;;
53927;SDS011;39837;47.630;18.822;2023-05-29T02:24:06;2.85;;;2.65;;
53927;SDS011;39837;47.630;18.822;2023-05-29T02:26:51;2.63;;;2.42;;
53927;SDS011;39837;47.630;18.822;2023-05-29T02:29:35;3.92;;;3.25;;
53927;SDS011;39837;47.630;18.822;2023-05-29T02:32:20;2.67;;;2.47;;
53927;SDS011;39837;47.630;18.822;2023-05-29T02:35:06;2.47;;;2.38;;
53927;SDS011;39837;47.630;18.822;2023-05-29T02:37:51;3.47;;;3.17;;
53927;SDS011;39837;47.630;18.822;2023-05-29T02:40:35;6.53;;;3.65;;
53927;SDS011;39837;47.630;18.822;2023-05-29T02:43:21;2.70;;;2.50;;
53927;SDS011;39837;47.630;18.822;2023-05-29T02:46:06;3.50;;;2.72;;
53927;SDS011;39837;47.630;18.822;2023-05-29T02:48:50;2.95;;;2.75;;
53927;SDS011;39837;47.630;18.822;2023-05-29T02:51:34;3.45;;;3.15;;
53927;SDS011;39837;47.630;18.822;2023-05-29T02:54:18;3.70;;;2.85;;
53927;SDS011;39837;47.630;18.822;2023-05-29T02:57:03;3.03;;;2.75;;
53927;SDS011;39837;47.630;18.822;2023-05-29T02:59:48;2.65;;;2.45;;
53927;SDS011;39837;47.630;18.822;2023-05-29T03:02:32;3.60;;;3.17;;
53927;SDS011;39837;47.630;18.822;2023-05-29T03:05:18;3.20;;;3.00;;
53927;SDS011;39837;47.630;18.822;2023-05-29T03:08:02;3.05;;;2.83;;
53927;SDS011;39837;47.630;18.822;2023-05-29T03:10:45;10.95;;;2.40;;
53927;SDS011;39837;47.630;18.822;2023-05-29T03:13:30;3.35;;;3.05;;
53927;SDS011;39837;47.630;18.822;2023-05-29T03:16:17;5.38;;;3.78;;
53927;SDS011;39837;47.630;18.822;2023-05-29T03:19:01;3.03;;;2.85;;
53927;SDS011;39837;47.630;18.822;2023-05-29T03:21:46;2.95;;;2.75;;
53927;SDS011;39837;47.630;18.822;2023-05-29T03:24:30;2.50;;;2.40;;
53927;SDS011;39837;47.630;18.822;2023-05-29T03:27:15;3.42;;;3.13;;
53927;SDS011;39837;47.630;18.822;2023-05-29T03:29:59;4.90;;;3.00;;
53927;SDS011;39837;47.630;18.822;2023-05-29T03:32:43;6.03;;;3.22;;
53927;SDS011;39837;47.630;18.822;2023-05-29T03:35:27;3.35;;;2.95;;
53927;SDS011;39837;47.630;18.822;2023-05-29T03:38:12;2.70;;;2.50;;
53927;SDS011;39837;47.630;18.822;2023-05-29T03:40:56;3.35;;;3.13;;
53927;SDS011;39837;47.630;18.822;2023-05-29T03:43:40;2.92;;;2.72;;
53927;SDS011;39837;47.630;18.822;2023-05-29T03:46:25;2.60;;;2.50;;
53927;SDS011;39837;47.630;18.822;2023-05-29T03:49:08;2.47;;;2.38;;
53927;SDS011;39837;47.630;18.822;2023-05-29T03:51:52;3.42;;;3.13;;
53927;SDS011;39837;47.630;18.822;2023-05-29T03:54:37;2.83;;;2.70;;
53927;SDS011;39837;47.630;18.822;2023-05-29T03:57:21;3.60;;;3.38;;
53927;SDS011;39837;47.630;18.822;2023-05-29T04:00:08;2.70;;;2.50;;
53927;SDS011;39837;47.630;18.822;2023-05-29T04:02:54;2.60;;;2.50;;
53927;SDS011;39837;47.630;18.822;2023-05-29T04:05:39;3.00;;;2.80;;
53927;SDS011;39837;47.630;18.822;2023-05-29T04:08:23;2.80;;;2.60;;
53927;SDS011;39837;47.630;18.822;2023-05-29T04:11:07;7.22;;;3.60;;
53927;SDS011;39837;47.630;18.822;2023-05-29T04:13:51;7.63;;;4.05;;
53927;SDS011;39837;47.630;18.822;2023-05-29T04:16:35;3.03;;;2.83;;
53927;SDS011;39837;47.630;18.822;2023-05-29T04:19:19;3.03;;;2.83;;
53927;SDS011;39837;47.630;18.822;2023-05-29T04:22:04;4.15;;;3.35;;
53927;SDS011;39837;47.630;18.822;2023-05-29T04:24:48;2.80;;;2.63;;
53927;SDS011;39837;47.630;18.822;2023-05-29T04:27:32;2.78;;;2.58;;
53927;SDS011;39837;47.630;18.822;2023-05-29T04:30:20;3.42;;;3.08;;
53927;SDS011;39837;47.630;18.822;2023-05-29T04:33:04;5.03;;;3.03;;
53927;SDS011;39837;47.630;18.822;2023-05-29T04:35:49;4.60;;;3.22;;
53927;SDS011;39837;47.630;18.822;2023-05-29T04:38:33;2.80;;;2.60;;
53927;SDS011;39837;47.630;18.822;2023-05-29T04:41:20;4.95;;;3.33;;
53927;SDS011;39837;47.630;18.822;2023-05-29T04:44:12;2.72;;;2.55;;
53927;SDS011;39837;47.630;18.822;2023-05-29T04:46:57;9.80;;;2.65;;
53927;SDS011;39837;47.630;18.822;2023-05-29T04:49:41;3.72;;;3.00;;
53927;SDS011;39837;47.630;18.822;2023-05-29T04:52:25;4.30;;;3.03;;
53927;SDS011;39837;47.630;18.822;2023-05-29T04:55:10;2.97;;;2.70;;
53927;SDS011;39837;47.630;18.822;2023-05-29T04:57:54;4.63;;;2.80;;
53927;SDS011;39837;47.630;18.822;2023-05-29T05:00:38;2.92;;;2.72;;
53927;SDS011;39837;47.630;18.822;2023-05-29T05:03:22;3.83;;;3.47;;
53927;SDS011;39837;47.630;18.822;2023-05-29T05:06:08;1.92;;;1.83;;
53927;SDS011;39837;47.630;18.822;2023-05-29T05:08:53;2.87;;;2.60;;
53927;SDS011;39837;47.630;18.822;2023-05-29T05:11:37;22.77;;;3.92;;
53927;SDS011;39837;47.630;18.822;2023-05-29T05:14:21;3.00;;;2.70;;
53927;SDS011;39837;47.630;18.822;2023-05-29T05:17:06;3.03;;;2.72;;
53927;SDS011;39837;47.630;18.822;2023-05-29T05:19:50;2.25;;;2.15;;
53927;SDS011;39837;47.630;18.822;2023-05-29T05:22:37;2.95;;;2.30;;
53927;SDS011;39837;47.630;18.822;2023-05-29T05:25:21;2.35;;;2.17;;
53927;SDS011;39837;47.630;18.822;2023-05-29T05:28:05;2.42;;;2.22;;
53927;SDS011;39837;47.630;18.822;2023-05-29T05:30:49;5.15;;;3.85;;
53927;SDS011;39837;47.630;18.822;2023-05-29T05:33:33;2.72;;;2.25;;
53927;SDS011;39837;47.630;18.822;2023-05-29T05:36:17;4.65;;;2.47;;
53927;SDS011;39837;47.630;18.822;2023-05-29T05:39:02;11.18;;;2.65;;
53927;SDS011;39837;47.630;18.822;2023-05-29T05:41:46;3.10;;;2.90;;
53927;SDS011;39837;47.630;18.822;2023-05-29T05:44:30;4.97;;;2.90;;
53927;SDS011;39837;47.630;18.822;2023-05-29T05:47:14;2.60;;;2.40;;
53927;SDS011;39837;47.630;18.822;2023-05-29T05:49:58;2.47;;;2.28;;
53927;SDS011;39837;47.630;18.822;2023-05-29T05:52:43;2.42;;;2.22;;
53927;SDS011;39837;47.630;18.822;2023-05-29T05:55:27;2.15;;;2.03;;
53927;SDS011;39837;47.630;18.822;2023-05-29T05:58:11;2.40;;;2.08;;
53927;SDS011;39837;47.630;18.822;2023-05-29T06:00:55;2.38;;;2.17;;
53927;SDS011;39837;47.630;18.822;2023-05-29T06:03:40;2.08;;;1.98;;
53927;SDS011;39837;47.630;18.822;2023-05-29T06:06:24;2.22;;;2.08;;
53927;SDS011;39837;47.630;18.822;2023-05-29T06:09:08;2.33;;;2.17;;
53927;SDS011;39837;47.630;18.822;2023-05-29T06:11:53;1.67;;;1.45;;
53927;SDS011;39837;47.630;18.822;2023-05-29T06:14:36;3.22;;;2.45;;
53927;SDS011;39837;47.630;18.822;2023-05-29T06:17:21;3.15;;;2.08;;
53927;SDS011;39837;47.630;18.822;2023-05-29T06:20:05;2.80;;;2.50;;
53927;SDS011;39837;47.630;18.822;2023-05-29T06:22:53;6.57;;;2.65;;
53927;SDS011;39837;47.630;18.822;2023-05-29T06:25:37;2.10;;;2.00;;
53927;SDS011;39837;47.630;18.822;2023-05-29T06:28:21;2.78;;;1.67;;
53927;SDS011;39837;47.630;18.822;2023-05-29T06:31:05;2.40;;;2.20;;
53927;SDS011;39837;47.630;18.822;2023-05-29T06:33:50;2.50;;;1.77;;
53927;SDS011;39837;47.630;18.822;2023-05-29T06:36:34;3.30;;;1.63;;
53927;SDS011;39837;47.630;18.822;2023-05-29T06:39:18;1.48;;;1.42;;
53927;SDS011;39837;47.630;18.822;2023-05-29T06:42:03;1.65;;;1.45;;
53927;SDS011;39837;47.630;18.822;2023-05-29T06:44:48;2.03;;;1.92;;
53927;SDS011;39837;47.630;18.822;2023-05-29T06:47:32;1.13;;;1.13;;
53927;SDS011;39837;47.630;18.822;2023-05-29T06:50:16;2.70;;;1.80;;
53927;SDS011;39837;47.630;18.822;2023-05-29T06:53:00;1.90;;;1.80;;
53927;SDS011;39837;47.630;18.822;2023-05-29T06:55:44;2.05;;;1.42;;
53927;SDS011;39837;47.630;18.822;2023-05-29T06:58:29;1.52;;;1.42;;
53927;SDS011;39837;47.630;18.822;2023-05-29T07:01:14;1.42;;;1.20;;
53927;SDS011;39837;47.630;18.822;2023-05-29T07:04:00;1.75;;;1.65;;
53927;SDS011;39837;47.630;18.822;2023-05-29T07:06:45;1.63;;;1.52;;
53927;SDS011;39837;47.630;18.822;2023-05-29T07:09:28;2.83;;;1.27;;
53927;SDS011;39837;47.630;18.822;2023-05-29T07:12:13;1.50;;;1.40;;
53927;SDS011;39837;47.630;18.822;2023-05-29T07:14:57;2.60;;;1.60;;
53927;SDS011;39837;47.630;18.822;2023-05-29T07:17:41;4.63;;;1.60;;
53927;SDS011;39837;47.630;18.822;2023-05-29T07:20:25;3.40;;;1.83;;
53927;SDS011;39837;47.630;18.822;2023-05-29T07:23:09;2.03;;;1.92;;
53927;SDS011;39837;47.630;18.822;2023-05-29T07:25:53;1.30;;;1.23;;
53927;SDS011;39837;47.630;18.822;2023-05-29T07:28:37;1.70;;;1.60;;
53927;SDS011;39837;47.630;18.822;2023-05-29T07:31:21;1.45;;;1.27;;
53927;SDS011;39837;47.630;18.822;2023-05-29T07:34:05;1.57;;;1.50;;
53927;SDS011;39837;47.630;18.822;2023-05-29T07:39:46;1.33;;;1.23;;
53927;SDS011;39837;47.630;18.822;2023-05-29T07:42:30;3.85;;;1.42;;
53927;SDS011;39837;47.630;18.822;2023-05-29T07:45:16;1.65;;;1.55;;
53927;SDS011;39837;47.630;18.822;2023-05-29T07:48:00;1.57;;;1.47;;
53927;SDS011;39837;47.630;18.822;2023-05-29T07:50:44;1.57;;;1.47;;
53927;SDS011;39837;47.630;18.822;2023-05-29T07:53:27;1.67;;;1.60;;
53927;SDS011;39837;47.630;18.822;2023-05-29T07:56:11;9.52;;;1.63;;
53927;SDS011;39837;47.630;18.822;2023-05-29T07:58:57;1.67;;;1.10;;
53927;SDS011;39837;47.630;18.822;2023-05-29T08:01:43;11.05;;;1.55;;
53927;SDS011;39837;47.630;18.822;2023-05-29T08:04:27;1.20;;;1.20;;
53927;SDS011;39837;47.630;18.822;2023-05-29T08:07:11;1.60;;;1.23;;
53927;SDS011;39837;47.630;18.822;2023-05-29T08:09:56;3.17;;;1.45;;
53927;SDS011;39837;47.630;18.822;2023-05-29T08:12:39;1.95;;;1.73;;
53927;SDS011;39837;47.630;18.822;2023-05-29T08:15:24;1.42;;;1.42;;
53927;SDS011;39837;47.630;18.822;2023-05-29T08:18:10;2.47;;;1.88;;
53927;SDS011;39837;47.630;18.822;2023-05-29T08:20:53;2.42;;;1.67;;
53927;SDS011;39837;47.630;18.822;2023-05-29T08:23:38;1.58;;;1.48;;
53927;SDS011;39837;47.630;18.822;2023-05-29T08:26:22;2.22;;;2.03;;
53927;SDS011;39837;47.630;18.822;2023-05-29T08:29:06;1.57;;;1.57;;
53927;SDS011;39837;47.630;18.822;2023-05-29T08:31:50;3.80;;;1.83;;
53927;SDS011;39837;47.630;18.822;2023-05-29T08:34:34;2.38;;;1.45;;
53927;SDS011;39837;47.630;18.822;2023-05-29T08:37:18;1.63;;;1.53;;
53927;SDS011;39837;47.630;18.822;2023-05-29T08:40:03;3.17;;;1.50;;
53927;SDS011;39837;47.630;18.822;2023-05-29T08:46:04;2.42;;;1.77;;
53927;SDS011;39837;47.630;18.822;2023-05-29T08:48:49;1.52;;;1.42;;
53927;SDS011;39837;47.630;18.822;2023-05-29T08:51:37;1.55;;;1.45;;
53927;SDS011;39837;47.630;18.822;2023-05-29T08:54:22;1.60;;;1.23;;
53927;SDS011;39837;47.630;18.822;2023-05-29T08:57:06;4.60;;;2.55;;
53927;SDS011;39837;47.630;18.822;2023-05-29T08:59:51;2.35;;;1.75;;
53927;SDS011;39837;47.630;18.822;2023-05-29T09:02:35;1.00;;;0.95;;
53927;SDS011;39837;47.630;18.822;2023-05-29T09:05:21;1.88;;;1.27;;
53927;SDS011;39837;47.630;18.822;2023-05-29T09:08:08;1.30;;;1.30;;
53927;SDS011;39837;47.630;18.822;2023-05-29T09:10:54;2.08;;;1.70;;
53927;SDS011;39837;47.630;18.822;2023-05-29T09:13:39;1.13;;;1.13;;
53927;SDS011;39837;47.630;18.822;2023-05-29T09:16:23;0.90;;;0.90;;
53927;SDS011;39837;47.630;18.822;2023-05-29T09:19:07;2.42;;;1.33;;
53927;SDS011;39837;47.630;18.822;2023-05-29T09:21:51;1.55;;;1.50;;
53927;SDS011;39837;47.630;18.822;2023-05-29T09:24:35;1.17;;;1.10;;
53927;SDS011;39837;47.630;18.822;2023-05-29T09:27:20;1.30;;;1.30;;
53927;SDS011;39837;47.630;18.822;2023-05-29T09:30:04;1.65;;;1.55;;
53927;SDS011;39837;47.630;18.822;2023-05-29T09:32:52;1.35;;;1.27;;
53927;SDS011;39837;47.630;18.822;2023-05-29T09:38:23;1.30;;;1.30;;
53927;SDS011;39837;47.630;18.822;2023-05-29T09:43:51;1.77;;;1.67;;
53927;SDS011;39837;47.630;18.822;2023-05-29T09:46:37;1.80;;;1.70;;
53927;SDS011;39837;47.630;18.822;2023-05-29T09:49:22;1.30;;;1.20;;
53927;SDS011;39837;47.630;18.822;2023-05-29T09:52:06;1.20;;;1.10;;
53927;SDS011;39837;47.630;18.822;2023-05-29T09:57:36;1.52;;;1.48;;
53927;SDS011;39837;47.630;18.822;2023-05-29T10:03:05;3.92;;;1.65;;
53927;SDS011;39837;47.630;18.822;2023-05-29T10:05:50;1.15;;;1.15;;
53927;SDS011;39837;47.630;18.822;2023-05-29T10:08:35;4.03;;;1.77;;
53927;SDS011;39837;47.630;18.822;2023-05-29T10:11:27;1.20;;;1.20;;
53927;SDS011;39837;47.630;18.822;2023-05-29T10:14:14;1.88;;;1.77;;
53927;SDS011;39837;47.630;18.822;2023-05-29T10:17:07;2.20;;;2.00;;
53927;SDS011;39837;47.630;18.822;2023-05-29T10:19:51;1.80;;;1.70;;
53927;SDS011;39837;47.630;18.822;2023-05-29T10:22:38;2.15;;;1.92;;
53927;SDS011;39837;47.630;18.822;2023-05-29T10:25:25;2.50;;;1.92;;
53927;SDS011;39837;47.630;18.822;2023-05-29T10:28:11;1.95;;;1.75;;
53927;SDS011;39837;47.630;18.822;2023-05-29T10:31:08;3.03;;;2.03;;
53927;SDS011;39837;47.630;18.822;2023-05-29T10:37:01;1.48;;;1.40;;
53927;SDS011;39837;47.630;18.822;2023-05-29T10:39:50;1.55;;;1.45;;
53927;SDS011;39837;47.630;18.822;2023-05-29T10:42:41;1.55;;;1.52;;
53927;SDS011;39837;47.630;18.822;2023-05-29T10:51:00;1.10;;;1.08;;
53927;SDS011;39837;47.630;18.822;2023-05-29T10:53:45;1.50;;;1.40;;
53927;SDS011;39837;47.630;18.822;2023-05-29T10:56:29;1.90;;;1.80;;
53927;SDS011;39837;47.630;18.822;2023-05-29T10:59:14;3.40;;;1.63;;
53927;SDS011;39837;47.630;18.822;2023-05-29T11:02:01;1.58;;;1.48;;
53927;SDS011;39837;47.630;18.822;2023-05-29T11:05:49;1.70;;;1.60;;
53927;SDS011;39837;47.630;18.822;2023-05-29T11:08:05;1.88;;;1.25;;
53927;SDS011;39837;47.630;18.822;2023-05-29T11:13:37;17.58;;;2.58;;
53927;SDS011;39837;47.630;18.822;2023-05-29T11:19:09;1.30;;;1.30;;
53927;SDS011;39837;47.630;18.822;2023-05-29T11:24:53;1.70;;;1.60;;
53927;SDS011;39837;47.630;18.822;2023-05-29T11:27:40;3.90;;;1.98;;
53927;SDS011;39837;47.630;18.822;2023-05-29T11:30:25;1.83;;;1.73;;
53927;SDS011;39837;47.630;18.822;2023-05-29T11:33:09;4.78;;;2.10;;
53927;SDS011;39837;47.630;18.822;2023-05-29T11:36:05;4.10;;;2.10;;
53927;SDS011;39837;47.630;18.822;2023-05-29T11:38:51;4.50;;;2.33;;
53927;SDS011;39837;47.630;18.822;2023-05-29T11:41:35;2.35;;;2.15;;
53927;SDS011;39837;47.630;18.822;2023-05-29T11:44:19;13.13;;;1.98;;
53927;SDS011;39837;47.630;18.822;2023-05-29T11:47:04;2.33;;;2.17;;
53927;SDS011;39837;47.630;18.822;2023-05-29T11:49:49;1.80;;;1.70;;
53927;SDS011;39837;47.630;18.822;2023-05-29T11:52:33;5.95;;;2.30;;
53927;SDS011;39837;47.630;18.822;2023-05-29T11:55:17;4.65;;;2.63;;
53927;SDS011;39837;47.630;18.822;2023-05-29T11:58:03;3.35;;;2.78;;
53927;SDS011;39837;47.630;18.822;2023-05-29T12:00:48;1.93;;;1.80;;
53927;SDS011;39837;47.630;18.822;2023-05-29T12:03:40;7.38;;;3.17;;
53927;SDS011;39837;47.630;18.822;2023-05-29T12:06:33;4.63;;;2.65;;
53927;SDS011;39837;47.630;18.822;2023-05-29T12:09:24;2.65;;;2.40;;
53927;SDS011;39837;47.630;18.822;2023-05-29T12:12:11;4.18;;;2.35;;
53927;SDS011;39837;47.630;18.822;2023-05-29T12:14:55;2.35;;;2.15;;
53927;SDS011;39837;47.630;18.822;2023-05-29T12:17:39;3.80;;;2.60;;
53927;SDS011;39837;47.630;18.822;2023-05-29T12:20:24;3.33;;;3.03;;
53927;SDS011;39837;47.630;18.822;2023-05-29T12:23:12;3.20;;;2.45;;
53927;SDS011;39837;47.630;18.822;2023-05-29T12:25:56;3.33;;;2.25;;
53927;SDS011;39837;47.630;18.822;2023-05-29T12:28:42;2.88;;;2.67;;
53927;SDS011;39837;47.630;18.822;2023-05-29T12:31:30;2.97;;;2.75;;
53927;SDS011;39837;47.630;18.822;2023-05-29T12:34:14;3.08;;;2.60;;
53927;SDS011;39837;47.630;18.822;2023-05-29T12:37:06;2.92;;;2.67;;
53927;SDS011;39837;47.630;18.822;2023-05-29T12:43:06;2.85;;;2.63;;
53927;SDS011;39837;47.630;18.822;2023-05-29T12:45:54;2.45;;;2.30;;
53927;SDS011;39837;47.630;18.822;2023-05-29T12:48:40;6.32;;;2.88;;
53927;SDS011;39837;47.630;18.822;2023-05-29T12:51:24;2.40;;;2.13;;
53927;SDS011;39837;47.630;18.822;2023-05-29T12:54:15;4.70;;;2.30;;
53927;SDS011;39837;47.630;18.822;2023-05-29T12:56:59;2.90;;;2.42;;
53927;SDS011;39837;47.630;18.822;2023-05-29T12:59:44;2.58;;;2.38;;
53927;SDS011;39837;47.630;18.822;2023-05-29T13:02:29;2.87;;;2.50;;
53927;SDS011;39837;47.630;18.822;2023-05-29T13:05:14;2.22;;;2.08;;
53927;SDS011;39837;47.630;18.822;2023-05-29T13:10:43;3.05;;;2.38;;
53927;SDS011;39837;47.630;18.822;2023-05-29T13:13:28;7.37;;;2.67;;
53927;SDS011;39837;47.630;18.822;2023-05-29T13:16:12;3.60;;;2.47;;
53927;SDS011;39837;47.630;18.822;2023-05-29T13:18:56;5.25;;;2.50;;
53927;SDS011;39837;47.630;18.822;2023-05-29T13:21:40;2.38;;;2.20;;
53927;SDS011;39837;47.630;18.822;2023-05-29T13:24:31;2.40;;;2.20;;
53927;SDS011;39837;47.630;18.822;2023-05-29T13:27:15;2.38;;;1.92;;
53927;SDS011;39837;47.630;18.822;2023-05-29T13:29:59;6.97;;;2.25;;
53927;SDS011;39837;47.630;18.822;2023-05-29T13:32:44;15.77;;;1.97;;
53927;SDS011;39837;47.630;18.822;2023-05-29T13:35:28;1.92;;;1.83;;
53927;SDS011;39837;47.630;18.822;2023-05-29T13:38:12;3.95;;;2.17;;
53927;SDS011;39837;47.630;18.822;2023-05-29T13:40:56;3.58;;;1.88;;
53927;SDS011;39837;47.630;18.822;2023-05-29T13:43:39;1.70;;;1.60;;
53927;SDS011;39837;47.630;18.822;2023-05-29T13:46:24;3.22;;;2.00;;
53927;SDS011;39837;47.630;18.822;2023-05-29T13:49:10;2.55;;;1.50;;
53927;SDS011;39837;47.630;18.822;2023-05-29T13:51:54;3.38;;;2.50;;
53927;SDS011;39837;47.630;18.822;2023-05-29T13:54:39;2.27;;;2.07;;
53927;SDS011;39837;47.630;18.822;2023-05-29T13:57:23;3.03;;;1.97;;
53927;SDS011;39837;47.630;18.822;2023-05-29T14:00:07;3.28;;;1.90;;
53927;SDS011;39837;47.630;18.822;2023-05-29T14:02:53;12.82;;;2.58;;
53927;SDS011;39837;47.630;18.822;2023-05-29T14:05:37;4.18;;;2.70;;
53927;SDS011;39837;47.630;18.822;2023-05-29T14:08:21;2.50;;;2.30;;
53927;SDS011;39837;47.630;18.822;2023-05-29T14:11:04;2.33;;;1.90;;
53927;SDS011;39837;47.630;18.822;2023-05-29T14:13:48;6.80;;;2.10;;
53927;SDS011;39837;47.630;18.822;2023-05-29T14:16:33;3.73;;;2.37;;
53927;SDS011;39837;47.630;18.822;2023-05-29T14:19:18;1.70;;;1.60;;
53927;SDS011;39837;47.630;18.822;2023-05-29T14:22:02;4.90;;;2.10;;
53927;SDS011;39837;47.630;18.822;2023-05-29T14:24:47;2.27;;;2.17;;
53927;SDS011;39837;47.630;18.822;2023-05-29T14:27:31;2.88;;;2.67;;
53927;SDS011;39837;47.630;18.822;2023-05-29T14:30:15;9.63;;;2.00;;
53927;SDS011;39837;47.630;18.822;2023-05-29T14:32:59;5.28;;;2.20;;
53927;SDS011;39837;47.630;18.822;2023-05-29T14:35:43;4.10;;;2.30;;
53927;SDS011;39837;47.630;18.822;2023-05-29T14:38:27;1.77;;;1.67;;
53927;SDS011;39837;47.630;18.822;2023-05-29T14:41:11;6.43;;;3.15;;
53927;SDS011;39837;47.630;18.822;2023-05-29T14:43:55;1.60;;;1.50;;
53927;SDS011;39837;47.630;18.822;2023-05-29T14:46:42;7.05;;;1.98;;
53927;SDS011;39837;47.630;18.822;2023-05-29T14:49:29;3.15;;;2.00;;
53927;SDS011;39837;47.630;18.822;2023-05-29T14:52:15;2.10;;;1.65;;
53927;SDS011;39837;47.630;18.822;2023-05-29T14:55:03;2.47;;;1.98;;
53927;SDS011;39837;47.630;18.822;2023-05-29T14:57:48;2.30;;;2.10;;
53927;SDS011;39837;47.630;18.822;2023-05-29T15:00:32;4.43;;;2.42;;
53927;SDS011;39837;47.630;18.822;2023-05-29T15:03:16;1.42;;;1.38;;
53927;SDS011;39837;47.630;18.822;2023-05-29T15:05:59;1.77;;;1.67;;
53927;SDS011;39837;47.630;18.822;2023-05-29T15:08:43;2.40;;;1.85;;
53927;SDS011;39837;47.630;18.822;2023-05-29T15:11:29;2.35;;;2.15;;
53927;SDS011;39837;47.630;18.822;2023-05-29T15:14:14;1.58;;;1.58;;
53927;SDS011;39837;47.630;18.822;2023-05-29T15:16:58;1.95;;;1.85;;
53927;SDS011;39837;47.630;18.822;2023-05-29T15:19:42;1.90;;;1.80;;
53927;SDS011;39837;47.630;18.822;2023-05-29T15:22:26;1.90;;;1.80;;
53927;SDS011;39837;47.630;18.822;2023-05-29T15:25:10;10.88;;;2.53;;
53927;SDS011;39837;47.630;18.822;2023-05-29T15:27:54;2.97;;;1.95;;
53927;SDS011;39837;47.630;18.822;2023-05-29T15:30:38;3.83;;;1.83;;
53927;SDS011;39837;47.630;18.822;2023-05-29T15:33:22;2.15;;;1.98;;
53927;SDS011;39837;47.630;18.822;2023-05-29T15:36:06;1.95;;;1.85;;
53927;SDS011;39837;47.630;18.822;2023-05-29T15:38:50;6.30;;;2.08;;
53927;SDS011;39837;47.630;18.822;2023-05-29T15:41:35;2.25;;;2.05;;
53927;SDS011;39837;47.630;18.822;2023-05-29T15:44:18;4.93;;;2.38;;
53927;SDS011;39837;47.630;18.822;2023-05-29T15:47:02;4.60;;;2.22;;
53927;SDS011;39837;47.630;18.822;2023-05-29T15:49:47;2.00;;;1.90;;
53927;SDS011;39837;47.630;18.822;2023-05-29T15:52:31;3.88;;;2.67;;
53927;SDS011;39837;47.630;18.822;2023-05-29T15:55:15;2.17;;;2.03;;
53927;SDS011;39837;47.630;18.822;2023-05-29T15:58:00;3.60;;;2.80;;
53927;SDS011;39837;47.630;18.822;2023-05-29T16:00:44;2.33;;;2.03;;
53927;SDS011;39837;47.630;18.822;2023-05-29T16:03:28;2.80;;;2.60;;
53927;SDS011;39837;47.630;18.822;2023-05-29T16:06:12;4.43;;;2.50;;
53927;SDS011;39837;47.630;18.822;2023-05-29T16:08:56;2.63;;;2.20;;
53927;SDS011;39837;47.630;18.822;2023-05-29T16:11:40;2.00;;;1.92;;
53927;SDS011;39837;47.630;18.822;2023-05-29T16:14:24;3.03;;;2.38;;
53927;SDS011;39837;47.630;18.822;2023-05-29T16:17:09;5.68;;;2.17;;
53927;SDS011;39837;47.630;18.822;2023-05-29T16:19:53;2.33;;;2.17;;
53927;SDS011;39837;47.630;18.822;2023-05-29T16:22:39;3.55;;;2.47;;
53927;SDS011;39837;47.630;18.822;2023-05-29T16:25:23;2.45;;;2.25;;
53927;SDS011;39837;47.630;18.822;2023-05-29T16:28:07;7.47;;;2.95;;
53927;SDS011;39837;47.630;18.822;2023-05-29T16:30:51;2.25;;;2.05;;
53927;SDS011;39837;47.630;18.822;2023-05-29T16:33:35;2.05;;;1.92;;
53927;SDS011;39837;47.630;18.822;2023-05-29T16:36:19;6.20;;;3.15;;
53927;SDS011;39837;47.630;18.822;2023-05-29T16:39:04;2.28;;;2.10;;
53927;SDS011;39837;47.630;18.822;2023-05-29T16:41:48;3.10;;;2.75;;
53927;SDS011;39837;47.630;18.822;2023-05-29T16:44:32;2.00;;;1.85;;
53927;SDS011;39837;47.630;18.822;2023-05-29T16:47:16;2.60;;;2.40;;
53927;SDS011;39837;47.630;18.822;2023-05-29T16:50:00;2.88;;;2.67;;
53927;SDS011;39837;47.630;18.822;2023-05-29T16:52:45;3.97;;;2.22;;
53927;SDS011;39837;47.630;18.822;2023-05-29T16:55:30;2.85;;;2.63;;
53927;SDS011;39837;47.630;18.822;2023-05-29T16:58:14;2.50;;;2.40;;
53927;SDS011;39837;47.630;18.822;2023-05-29T17:00:58;2.38;;;2.20;;
53927;SDS011;39837;47.630;18.822;2023-05-29T17:03:42;2.08;;;1.88;;
53927;SDS011;39837;47.630;18.822;2023-05-29T17:06:27;2.85;;;2.65;;
53927;SDS011;39837;47.630;18.822;2023-05-29T17:09:11;2.35;;;2.25;;